sensor_id;sensor_type;location;lat;lon;timestamp;pressure;altitude;pressure_sealevel;temperature;humidity
31011;BME280;26395;53.412;19.598;2023-04-06T00:02:42;101082.30;;;6.52;55.55
31011;BME280;26395;53.412;19.598;2023-04-06T00:17:45;101075.17;;;6.46;56.22
31011;BME280;26395;53.412;19.598;2023-04-06T00:32:50;101068.65;;;6.39;56.63
31011;BME280;26395;53.412;19.598;2023-04-06T00:47:53;101063.31;;;6.35;56.81
31011;BME280;26395;53.412;19.598;2023-04-06T01:02:56;101057.92;;;6.35;57.34
31011;BME280;26395;53.412;19.598;2023-04-06T01:18:08;101059.42;;;6.33;57.95
31011;BME280;26395;53.412;19.598;2023-04-06T01:33:16;101057.85;;;6.28;57.58
31011;BME280;26395;53.412;19.598;2023-04-06T01:48:32;101050.64;;;6.23;58.06
31011;BME280;26395;53.412;19.598;2023-04-06T02:03:37;101044.87;;;6.17;58.34
31011;BME280;26395;53.412;19.598;2023-04-06T02:18:43;101045.83;;;6.15;59.07
31011;BME280;26395;53.412;19.598;2023-04-06T02:33:47;101047.05;;;6.19;58.35
31011;BME280;26395;53.412;19.598;2023-04-06T02:48:51;101041.29;;;6.10;58.74
31011;BME280;26395;53.412;19.598;2023-04-06T03:03:54;101047.02;;;6.10;58.70
31011;BME280;26395;53.412;19.598;2023-04-06T03:19:01;101048.55;;;6.08;58.69
31011;BME280;26395;53.412;19.598;2023-04-06T03:34:07;101053.35;;;6.06;58.89
31011;BME280;26395;53.412;19.598;2023-04-06T03:49:11;101058.20;;;6.02;59.11
31011;BME280;26395;53.412;19.598;2023-04-06T04:04:15;101064.91;;;5.97;59.55
31011;BME280;26395;53.412;19.598;2023-04-06T04:19:19;101066.33;;;5.93;59.55
31011;BME280;26395;53.412;19.598;2023-04-06T04:34:22;101062.98;;;5.88;59.39
31011;BME280;26395;53.412;19.598;2023-04-06T04:49:29;101072.23;;;5.90;59.90
31011;BME280;26395;53.412;19.598;2023-04-06T05:04:32;101074.93;;;5.92;60.43
31011;BME280;26395;53.412;19.598;2023-04-06T05:19:36;101075.48;;;5.98;60.17
31011;BME280;26395;53.412;19.598;2023-04-06T05:34:39;101076.54;;;6.13;60.22
31011;BME280;26395;53.412;19.598;2023-04-06T05:49:43;101071.05;;;6.33;59.94
31011;BME280;26395;53.412;19.598;2023-04-06T06:04:51;101065.48;;;6.45;59.42
31011;BME280;26395;53.412;19.598;2023-04-06T06:19:55;101064.42;;;6.61;59.47
31011;BME280;26395;53.412;19.598;2023-04-06T06:34:58;101062.59;;;6.74;59.07
31011;BME280;26395;53.412;19.598;2023-04-06T06:50:03;101053.23;;;7.14;59.08
31011;BME280;26395;53.412;19.598;2023-04-06T07:05:07;101052.71;;;7.76;58.97
31011;BME280;26395;53.412;19.598;2023-04-06T07:20:28;101047.77;;;8.15;58.35
31011;BME280;26395;53.412;19.598;2023-04-06T07:35:32;101039.98;;;8.43;57.29
31011;BME280;26395;53.412;19.598;2023-04-06T07:50:35;101037.41;;;9.02;56.47
31011;BME280;26395;53.412;19.598;2023-04-06T08:05:39;101034.55;;;9.94;55.70
31011;BME280;26395;53.412;19.598;2023-04-06T08:20:42;101039.63;;;9.89;54.23
31011;BME280;26395;53.412;19.598;2023-04-06T08:35:45;101033.83;;;9.70;53.15
31011;BME280;26395;53.412;19.598;2023-04-06T08:50:49;101023.48;;;9.17;52.39
31011;BME280;26395;53.412;19.598;2023-04-06T09:05:52;101030.80;;;9.44;52.54
31011;BME280;26395;53.412;19.598;2023-04-06T09:21:01;101033.39;;;9.57;52.80
31011;BME280;26395;53.412;19.598;2023-04-06T09:36:05;101026.42;;;9.56;52.15
31011;BME280;26395;53.412;19.598;2023-04-06T09:51:10;101012.25;;;9.79;52.39
31011;BME280;26395;53.412;19.598;2023-04-06T10:06:23;101003.64;;;9.94;51.78
31011;BME280;26395;53.412;19.598;2023-04-06T10:21:29;100996.33;;;10.27;51.46
31011;BME280;26395;53.412;19.598;2023-04-06T10:36:35;100982.95;;;10.92;51.31
31011;BME280;26395;53.412;19.598;2023-04-06T10:51:39;100971.15;;;11.27;51.11
31011;BME280;26395;53.412;19.598;2023-04-06T11:06:46;100961.36;;;11.24;51.00
31011;BME280;26395;53.412;19.598;2023-04-06T11:21:50;100947.97;;;10.90;51.07
31011;BME280;26395;53.412;19.598;2023-04-06T11:36:59;100934.44;;;10.59;51.61
31011;BME280;26395;53.412;19.598;2023-04-06T11:52:02;100918.54;;;10.45;51.89
31011;BME280;26395;53.412;19.598;2023-04-06T12:07:06;100911.54;;;10.13;53.32
31011;BME280;26395;53.412;19.598;2023-04-06T12:22:09;100904.35;;;9.94;54.32
31011;BME280;26395;53.412;19.598;2023-04-06T12:37:12;100885.59;;;10.07;54.45
31011;BME280;26395;53.412;19.598;2023-04-06T12:52:16;100878.13;;;10.13;55.14
31011;BME280;26395;53.412;19.598;2023-04-06T13:07:19;100869.62;;;10.26;55.09
31011;BME280;26395;53.412;19.598;2023-04-06T13:22:23;100862.77;;;10.01;54.87
31011;BME280;26395;53.412;19.598;2023-04-06T13:37:26;100848.92;;;9.72;54.99
31011;BME280;26395;53.412;19.598;2023-04-06T13:52:29;100831.14;;;9.53;55.09
31011;BME280;26395;53.412;19.598;2023-04-06T14:07:32;100817.49;;;9.53;55.12
31011;BME280;26395;53.412;19.598;2023-04-06T14:22:36;100803.66;;;9.61;55.04
31011;BME280;26395;53.412;19.598;2023-04-06T14:37:39;100805.84;;;9.62;55.24
31011;BME280;26395;53.412;19.598;2023-04-06T14:52:42;100798.29;;;9.44;55.99
31011;BME280;26395;53.412;19.598;2023-04-06T15:07:46;100789.16;;;9.37;56.65
31011;BME280;26395;53.412;19.598;2023-04-06T15:22:49;100779.96;;;9.30;57.14
31011;BME280;26395;53.412;19.598;2023-04-06T15:37:52;100773.89;;;9.05;57.52
31011;BME280;26395;53.412;19.598;2023-04-06T15:52:56;100760.61;;;9.03;58.36
31011;BME280;26395;53.412;19.598;2023-04-06T16:07:59;100761.02;;;8.95;58.55
31011;BME280;26395;53.412;19.598;2023-04-06T16:23:02;100756.88;;;8.78;59.04
31011;BME280;26395;53.412;19.598;2023-04-06T16:38:06;100750.27;;;8.51;59.91
31011;BME280;26395;53.412;19.598;2023-04-06T16:53:09;100741.88;;;8.39;60.50
31011;BME280;26395;53.412;19.598;2023-04-06T17:08:13;100741.77;;;8.23;61.09
31011;BME280;26395;53.412;19.598;2023-04-06T17:23:16;100746.25;;;8.11;61.38
31011;BME280;26395;53.412;19.598;2023-04-06T17:38:20;100757.78;;;8.00;61.55
31011;BME280;26395;53.412;19.598;2023-04-06T17:53:25;100766.11;;;7.83;61.33
31011;BME280;26395;53.412;19.598;2023-04-06T18:08:32;100761.10;;;7.55;61.26
31011;BME280;26395;53.412;19.598;2023-04-06T18:23:36;100764.06;;;7.42;60.98
31011;BME280;26395;53.412;19.598;2023-04-06T18:38:42;100769.96;;;7.47;61.09
31011;BME280;26395;53.412;19.598;2023-04-06T18:53:47;100779.35;;;7.29;61.34
31011;BME280;26395;53.412;19.598;2023-04-06T19:08:50;100767.98;;;7.11;62.18
31011;BME280;26395;53.412;19.598;2023-04-06T19:23:54;100768.40;;;7.10;62.60
31011;BME280;26395;53.412;19.598;2023-04-06T19:38:59;100758.05;;;7.11;63.44
31011;BME280;26395;53.412;19.598;2023-04-06T19:54:05;100772.23;;;7.10;64.11
31011;BME280;26395;53.412;19.598;2023-04-06T20:09:09;100760.82;;;7.06;64.89
31011;BME280;26395;53.412;19.598;2023-04-06T20:24:14;100747.86;;;7.07;65.76
31011;BME280;26395;53.412;19.598;2023-04-06T20:39:18;100737.48;;;7.06;66.66
31011;BME280;26395;53.412;19.598;2023-04-06T20:54:21;100725.59;;;7.08;67.73
31011;BME280;26395;53.412;19.598;2023-04-06T21:09:24;100717.36;;;7.06;68.40
31011;BME280;26395;53.412;19.598;2023-04-06T21:24:29;100709.56;;;7.08;69.13
31011;BME280;26395;53.412;19.598;2023-04-06T21:39:35;100698.17;;;7.14;70.09
31011;BME280;26395;53.412;19.598;2023-04-06T21:54:38;100678.16;;;7.14;70.76
31011;BME280;26395;53.412;19.598;2023-04-06T22:09:41;100664.95;;;7.12;71.29
31011;BME280;26395;53.412;19.598;2023-04-06T22:24:53;100655.40;;;7.11;72.67
31011;BME280;26395;53.412;19.598;2023-04-06T22:39:56;100639.35;;;7.18;73.31
31011;BME280;26395;53.412;19.598;2023-04-06T22:54:59;100631.29;;;7.26;73.33
31011;BME280;26395;53.412;19.598;2023-04-06T23:10:03;100618.48;;;7.30;74.09
31011;BME280;26395;53.412;19.598;2023-04-06T23:25:07;100606.29;;;7.35;74.17
31011;BME280;26395;53.412;19.598;2023-04-06T23:40:10;100598.34;;;7.42;75.08
31011;BME280;26395;53.412;19.598;2023-04-06T23:55:14;100590.58;;;7.44;75.69
